sensor_id;sensor_type;location;lat;lon;timestamp;P1;durP1;ratioP1;P2;durP2;ratioP2
76208;SDS011;64990;51.698;-0.292;2022-11-20T00:03:57;37.03;;;11.60;;
76208;SDS011;64990;51.698;-0.292;2022-11-20T00:06:24;34.42;;;12.73;;
76208;SDS011;64990;51.698;-0.292;2022-11-20T00:08:50;28.73;;;8.95;;
76208;SDS011;64990;51.698;-0.292;2022-11-20T00:11:17;30.80;;;12.35;;
76208;SDS011;64990;51.698;-0.292;2022-11-20T00:13:44;28.38;;;11.38;;
76208;SDS011;64990;51.698;-0.292;2022-11-20T00:16:10;32.03;;;10.07;;
76208;SDS011;64990;51.698;-0.292;2022-11-20T00:18:37;39.78;;;13.40;;
76208;SDS011;64990;51.698;-0.292;2022-11-20T00:21:04;30.52;;;12.43;;
76208;SDS011;64990;51.698;-0.292;2022-11-20T00:23:33;40.28;;;13.35;;
76208;SDS011;64990;51.698;-0.292;2022-11-20T00:26:03;53.13;;;14.43;;
76208;SDS011;64990;51.698;-0.292;2022-11-20T00:28:29;27.85;;;13.57;;
76208;SDS011;64990;51.698;-0.292;2022-11-20T00:31:00;42.35;;;15.13;;
76208;SDS011;64990;51.698;-0.292;2022-11-20T00:33:27;34.33;;;13.13;;
76208;SDS011;64990;51.698;-0.292;2022-11-20T00:35:53;37.05;;;14.93;;
76208;SDS011;64990;51.698;-0.292;2022-11-20T00:38:19;31.02;;;13.23;;
76208;SDS011;64990;51.698;-0.292;2022-11-20T00:40:45;36.22;;;13.70;;
76208;SDS011;64990;51.698;-0.292;2022-11-20T00:43:11;37.53;;;14.88;;
76208;SDS011;64990;51.698;-0.292;2022-11-20T00:45:37;41.22;;;11.98;;
76208;SDS011;64990;51.698;-0.292;2022-11-20T00:48:03;32.78;;;13.88;;
76208;SDS011;64990;51.698;-0.292;2022-11-20T00:50:29;37.78;;;13.18;;
76208;SDS011;64990;51.698;-0.292;2022-11-20T00:52:55;35.97;;;13.43;;
76208;SDS011;64990;51.698;-0.292;2022-11-20T00:55:21;44.72;;;14.38;;
76208;SDS011;64990;51.698;-0.292;2022-11-20T00:57:47;26.27;;;11.48;;
76208;SDS011;64990;51.698;-0.292;2022-11-20T01:00:13;41.53;;;14.93;;
76208;SDS011;64990;51.698;-0.292;2022-11-20T01:02:39;43.13;;;14.82;;
76208;SDS011;64990;51.698;-0.292;2022-11-20T01:05:05;36.08;;;13.65;;
76208;SDS011;64990;51.698;-0.292;2022-11-20T01:07:31;37.50;;;15.80;;
76208;SDS011;64990;51.698;-0.292;2022-11-20T01:09:57;29.33;;;13.38;;
76208;SDS011;64990;51.698;-0.292;2022-11-20T01:12:23;37.38;;;12.02;;
76208;SDS011;64990;51.698;-0.292;2022-11-20T01:14:49;54.08;;;13.18;;
76208;SDS011;64990;51.698;-0.292;2022-11-20T01:17:15;39.47;;;14.70;;
76208;SDS011;64990;51.698;-0.292;2022-11-20T01:19:41;44.83;;;12.90;;
76208;SDS011;64990;51.698;-0.292;2022-11-20T01:22:07;30.08;;;12.68;;
76208;SDS011;64990;51.698;-0.292;2022-11-20T01:24:33;39.50;;;13.30;;
76208;SDS011;64990;51.698;-0.292;2022-11-20T01:26:59;38.55;;;14.30;;
76208;SDS011;64990;51.698;-0.292;2022-11-20T01:29:25;35.70;;;13.68;;
76208;SDS011;64990;51.698;-0.292;2022-11-20T01:31:52;28.73;;;11.77;;
76208;SDS011;64990;51.698;-0.292;2022-11-20T01:34:18;26.52;;;12.02;;
76208;SDS011;64990;51.698;-0.292;2022-11-20T01:36:45;26.55;;;10.38;;
76208;SDS011;64990;51.698;-0.292;2022-11-20T01:39:12;28.67;;;12.35;;
76208;SDS011;64990;51.698;-0.292;2022-11-20T01:41:39;26.30;;;9.43;;
76208;SDS011;64990;51.698;-0.292;2022-11-20T01:47:08;35.58;;;9.68;;
76208;SDS011;64990;51.698;-0.292;2022-11-20T01:49:37;26.60;;;9.10;;
76208;SDS011;64990;51.698;-0.292;2022-11-20T01:52:05;24.98;;;8.82;;
76208;SDS011;64990;51.698;-0.292;2022-11-20T01:54:38;15.27;;;7.65;;
76208;SDS011;64990;51.698;-0.292;2022-11-20T01:57:06;26.15;;;8.02;;
76208;SDS011;64990;51.698;-0.292;2022-11-20T01:59:34;18.30;;;7.88;;
76208;SDS011;64990;51.698;-0.292;2022-11-20T02:02:03;30.88;;;7.40;;
76208;SDS011;64990;51.698;-0.292;2022-11-20T02:04:29;17.45;;;5.97;;
76208;SDS011;64990;51.698;-0.292;2022-11-20T02:06:59;15.60;;;5.55;;
76208;SDS011;64990;51.698;-0.292;2022-11-20T02:09:26;8.57;;;4.68;;
76208;SDS011;64990;51.698;-0.292;2022-11-20T02:11:52;39.13;;;5.65;;
76208;SDS011;64990;51.698;-0.292;2022-11-20T02:14:19;11.80;;;5.20;;
76208;SDS011;64990;51.698;-0.292;2022-11-20T02:16:46;13.35;;;5.38;;
76208;SDS011;64990;51.698;-0.292;2022-11-20T02:19:16;10.15;;;4.22;;
76208;SDS011;64990;51.698;-0.292;2022-11-20T02:24:23;13.32;;;4.03;;
76208;SDS011;64990;51.698;-0.292;2022-11-20T02:26:57;22.98;;;4.35;;
76208;SDS011;64990;51.698;-0.292;2022-11-20T02:29:27;28.10;;;5.43;;
76208;SDS011;64990;51.698;-0.292;2022-11-20T02:31:56;12.82;;;4.10;;
76208;SDS011;64990;51.698;-0.292;2022-11-20T02:34:23;8.70;;;4.75;;
76208;SDS011;64990;51.698;-0.292;2022-11-20T02:36:49;12.10;;;4.00;;
76208;SDS011;64990;51.698;-0.292;2022-11-20T02:39:16;8.57;;;3.20;;
76208;SDS011;64990;51.698;-0.292;2022-11-20T02:41:43;11.85;;;4.80;;
76208;SDS011;64990;51.698;-0.292;2022-11-20T02:44:09;17.95;;;3.90;;
76208;SDS011;64990;51.698;-0.292;2022-11-20T02:46:35;17.60;;;4.05;;
76208;SDS011;64990;51.698;-0.292;2022-11-20T02:49:02;26.75;;;4.35;;
76208;SDS011;64990;51.698;-0.292;2022-11-20T02:51:28;14.82;;;4.22;;
76208;SDS011;64990;51.698;-0.292;2022-11-20T02:53:54;15.43;;;4.72;;
76208;SDS011;64990;51.698;-0.292;2022-11-20T02:56:20;18.48;;;4.57;;
76208;SDS011;64990;51.698;-0.292;2022-11-20T02:58:46;13.90;;;4.68;;
76208;SDS011;64990;51.698;-0.292;2022-11-20T03:01:12;19.20;;;4.78;;
76208;SDS011;64990;51.698;-0.292;2022-11-20T03:03:38;19.58;;;3.80;;
76208;SDS011;64990;51.698;-0.292;2022-11-20T03:06:04;12.82;;;4.28;;
76208;SDS011;64990;51.698;-0.292;2022-11-20T03:08:30;19.75;;;6.88;;
76208;SDS011;64990;51.698;-0.292;2022-11-20T03:10:56;20.45;;;7.85;;
76208;SDS011;64990;51.698;-0.292;2022-11-20T03:13:27;15.82;;;5.40;;
76208;SDS011;64990;51.698;-0.292;2022-11-20T03:15:53;12.68;;;4.47;;
76208;SDS011;64990;51.698;-0.292;2022-11-20T03:18:19;11.27;;;4.70;;
76208;SDS011;64990;51.698;-0.292;2022-11-20T03:20:45;11.10;;;5.47;;
76208;SDS011;64990;51.698;-0.292;2022-11-20T03:23:11;14.30;;;5.18;;
76208;SDS011;64990;51.698;-0.292;2022-11-20T03:25:37;19.33;;;5.63;;
76208;SDS011;64990;51.698;-0.292;2022-11-20T03:28:03;17.35;;;5.47;;
76208;SDS011;64990;51.698;-0.292;2022-11-20T03:30:29;19.42;;;3.78;;
76208;SDS011;64990;51.698;-0.292;2022-11-20T03:32:55;20.02;;;5.38;;
76208;SDS011;64990;51.698;-0.292;2022-11-20T03:35:21;24.70;;;5.13;;
76208;SDS011;64990;51.698;-0.292;2022-11-20T03:37:47;12.40;;;4.40;;
76208;SDS011;64990;51.698;-0.292;2022-11-20T03:40:13;11.90;;;4.28;;
76208;SDS011;64990;51.698;-0.292;2022-11-20T03:42:39;13.07;;;4.57;;
76208;SDS011;64990;51.698;-0.292;2022-11-20T03:45:12;11.32;;;4.15;;
76208;SDS011;64990;51.698;-0.292;2022-11-20T03:47:38;12.68;;;5.55;;
76208;SDS011;64990;51.698;-0.292;2022-11-20T03:50:04;37.13;;;5.32;;
76208;SDS011;64990;51.698;-0.292;2022-11-20T03:52:31;13.57;;;5.38;;
76208;SDS011;64990;51.698;-0.292;2022-11-20T03:54:57;13.80;;;4.75;;
76208;SDS011;64990;51.698;-0.292;2022-11-20T03:57:23;12.45;;;4.03;;
76208;SDS011;64990;51.698;-0.292;2022-11-20T03:59:49;16.30;;;5.90;;
76208;SDS011;64990;51.698;-0.292;2022-11-20T04:02:15;13.95;;;5.70;;
76208;SDS011;64990;51.698;-0.292;2022-11-20T04:04:41;13.82;;;5.00;;
76208;SDS011;64990;51.698;-0.292;2022-11-20T04:07:06;26.48;;;6.35;;
76208;SDS011;64990;51.698;-0.292;2022-11-20T04:09:33;16.92;;;4.75;;
76208;SDS011;64990;51.698;-0.292;2022-11-20T04:11:59;17.40;;;3.45;;
76208;SDS011;64990;51.698;-0.292;2022-11-20T04:14:24;12.23;;;4.75;;
76208;SDS011;64990;51.698;-0.292;2022-11-20T04:16:50;16.13;;;4.90;;
76208;SDS011;64990;51.698;-0.292;2022-11-20T04:19:16;11.85;;;5.28;;
76208;SDS011;64990;51.698;-0.292;2022-11-20T04:21:43;13.90;;;3.95;;
76208;SDS011;64990;51.698;-0.292;2022-11-20T04:24:09;7.75;;;5.57;;
76208;SDS011;64990;51.698;-0.292;2022-11-20T04:26:36;12.55;;;3.97;;
76208;SDS011;64990;51.698;-0.292;2022-11-20T04:29:02;9.90;;;4.00;;
76208;SDS011;64990;51.698;-0.292;2022-11-20T04:31:29;13.32;;;4.32;;
76208;SDS011;64990;51.698;-0.292;2022-11-20T04:33:55;20.25;;;5.82;;
76208;SDS011;64990;51.698;-0.292;2022-11-20T04:36:25;13.10;;;4.82;;
76208;SDS011;64990;51.698;-0.292;2022-11-20T04:38:52;20.10;;;6.90;;
76208;SDS011;64990;51.698;-0.292;2022-11-20T04:41:19;52.45;;;5.35;;
76208;SDS011;64990;51.698;-0.292;2022-11-20T04:43:46;14.40;;;5.25;;
76208;SDS011;64990;51.698;-0.292;2022-11-20T04:46:16;16.83;;;4.38;;
76208;SDS011;64990;51.698;-0.292;2022-11-20T04:48:42;11.52;;;5.30;;
76208;SDS011;64990;51.698;-0.292;2022-11-20T04:51:08;16.85;;;5.63;;
76208;SDS011;64990;51.698;-0.292;2022-11-20T04:53:34;14.48;;;5.90;;
76208;SDS011;64990;51.698;-0.292;2022-11-20T04:56:01;10.88;;;4.68;;
76208;SDS011;64990;51.698;-0.292;2022-11-20T04:58:27;10.52;;;4.25;;
76208;SDS011;64990;51.698;-0.292;2022-11-20T05:00:53;12.07;;;4.22;;
76208;SDS011;64990;51.698;-0.292;2022-11-20T05:03:19;29.15;;;5.40;;
76208;SDS011;64990;51.698;-0.292;2022-11-20T05:05:45;13.30;;;4.32;;
76208;SDS011;64990;51.698;-0.292;2022-11-20T05:08:11;19.88;;;5.63;;
76208;SDS011;64990;51.698;-0.292;2022-11-20T05:10:37;27.25;;;5.70;;
76208;SDS011;64990;51.698;-0.292;2022-11-20T05:13:04;12.00;;;5.03;;
76208;SDS011;64990;51.698;-0.292;2022-11-20T05:15:30;13.27;;;4.32;;
76208;SDS011;64990;51.698;-0.292;2022-11-20T05:17:56;12.75;;;5.47;;
76208;SDS011;64990;51.698;-0.292;2022-11-20T05:20:22;27.58;;;5.68;;
76208;SDS011;64990;51.698;-0.292;2022-11-20T05:22:48;25.35;;;6.32;;
76208;SDS011;64990;51.698;-0.292;2022-11-20T05:25:14;11.82;;;4.80;;
76208;SDS011;64990;51.698;-0.292;2022-11-20T05:27:40;15.38;;;4.35;;
76208;SDS011;64990;51.698;-0.292;2022-11-20T05:30:07;19.15;;;5.65;;
76208;SDS011;64990;51.698;-0.292;2022-11-20T05:32:33;18.40;;;5.90;;
76208;SDS011;64990;51.698;-0.292;2022-11-20T05:34:59;17.08;;;4.82;;
76208;SDS011;64990;51.698;-0.292;2022-11-20T05:37:25;16.60;;;5.03;;
76208;SDS011;64990;51.698;-0.292;2022-11-20T05:39:52;14.85;;;5.53;;
76208;SDS011;64990;51.698;-0.292;2022-11-20T05:42:18;12.38;;;5.10;;
76208;SDS011;64990;51.698;-0.292;2022-11-20T05:44:59;23.38;;;5.28;;
76208;SDS011;64990;51.698;-0.292;2022-11-20T05:47:26;18.38;;;6.00;;
76208;SDS011;64990;51.698;-0.292;2022-11-20T05:49:52;26.20;;;6.78;;
76208;SDS011;64990;51.698;-0.292;2022-11-20T05:52:18;20.73;;;6.75;;
76208;SDS011;64990;51.698;-0.292;2022-11-20T05:54:44;15.75;;;6.97;;
76208;SDS011;64990;51.698;-0.292;2022-11-20T05:57:10;19.50;;;6.47;;
76208;SDS011;64990;51.698;-0.292;2022-11-20T05:59:36;14.40;;;5.90;;
76208;SDS011;64990;51.698;-0.292;2022-11-20T06:02:02;19.88;;;6.25;;
76208;SDS011;64990;51.698;-0.292;2022-11-20T06:04:28;14.95;;;5.63;;
76208;SDS011;64990;51.698;-0.292;2022-11-20T06:06:55;11.88;;;4.80;;
76208;SDS011;64990;51.698;-0.292;2022-11-20T06:09:21;12.35;;;6.45;;
76208;SDS011;64990;51.698;-0.292;2022-11-20T06:11:47;12.32;;;4.93;;
76208;SDS011;64990;51.698;-0.292;2022-11-20T06:14:13;20.05;;;5.97;;
76208;SDS011;64990;51.698;-0.292;2022-11-20T06:16:39;24.02;;;4.75;;
76208;SDS011;64990;51.698;-0.292;2022-11-20T06:19:05;19.75;;;5.63;;
76208;SDS011;64990;51.698;-0.292;2022-11-20T06:21:31;16.80;;;5.80;;
76208;SDS011;64990;51.698;-0.292;2022-11-20T06:23:57;10.50;;;4.60;;
76208;SDS011;64990;51.698;-0.292;2022-11-20T06:26:24;12.40;;;5.53;;
76208;SDS011;64990;51.698;-0.292;2022-11-20T06:28:50;13.15;;;4.95;;
76208;SDS011;64990;51.698;-0.292;2022-11-20T06:31:18;16.00;;;5.38;;
76208;SDS011;64990;51.698;-0.292;2022-11-20T06:33:44;13.77;;;5.03;;
76208;SDS011;64990;51.698;-0.292;2022-11-20T06:36:11;15.15;;;4.28;;
76208;SDS011;64990;51.698;-0.292;2022-11-20T06:38:37;8.25;;;4.38;;
76208;SDS011;64990;51.698;-0.292;2022-11-20T06:41:04;13.82;;;4.05;;
76208;SDS011;64990;51.698;-0.292;2022-11-20T06:43:30;13.15;;;4.88;;
76208;SDS011;64990;51.698;-0.292;2022-11-20T06:45:57;14.18;;;5.75;;
76208;SDS011;64990;51.698;-0.292;2022-11-20T06:48:23;8.70;;;5.07;;
76208;SDS011;64990;51.698;-0.292;2022-11-20T06:50:50;22.42;;;6.05;;
76208;SDS011;64990;51.698;-0.292;2022-11-20T06:53:16;14.30;;;4.85;;
76208;SDS011;64990;51.698;-0.292;2022-11-20T06:55:42;16.38;;;5.72;;
76208;SDS011;64990;51.698;-0.292;2022-11-20T06:58:09;16.10;;;6.25;;
76208;SDS011;64990;51.698;-0.292;2022-11-20T07:00:35;15.77;;;4.15;;
76208;SDS011;64990;51.698;-0.292;2022-11-20T07:03:04;9.75;;;4.82;;
76208;SDS011;64990;51.698;-0.292;2022-11-20T07:05:30;8.68;;;4.15;;
76208;SDS011;64990;51.698;-0.292;2022-11-20T07:07:57;12.45;;;3.50;;
76208;SDS011;64990;51.698;-0.292;2022-11-20T07:10:23;7.15;;;2.90;;
76208;SDS011;64990;51.698;-0.292;2022-11-20T07:12:52;18.38;;;4.47;;
76208;SDS011;64990;51.698;-0.292;2022-11-20T07:15:19;10.02;;;3.55;;
76208;SDS011;64990;51.698;-0.292;2022-11-20T07:17:46;15.13;;;3.35;;
76208;SDS011;64990;51.698;-0.292;2022-11-20T07:20:12;16.13;;;4.38;;
76208;SDS011;64990;51.698;-0.292;2022-11-20T07:22:39;11.60;;;4.47;;
76208;SDS011;64990;51.698;-0.292;2022-11-20T07:25:05;17.02;;;4.93;;
76208;SDS011;64990;51.698;-0.292;2022-11-20T07:27:31;8.30;;;4.00;;
76208;SDS011;64990;51.698;-0.292;2022-11-20T07:29:57;11.80;;;4.07;;
76208;SDS011;64990;51.698;-0.292;2022-11-20T07:32:23;9.07;;;4.10;;
76208;SDS011;64990;51.698;-0.292;2022-11-20T07:34:49;10.98;;;3.65;;
76208;SDS011;64990;51.698;-0.292;2022-11-20T07:37:15;12.18;;;4.20;;
76208;SDS011;64990;51.698;-0.292;2022-11-20T07:39:41;13.15;;;4.03;;
76208;SDS011;64990;51.698;-0.292;2022-11-20T07:42:08;12.57;;;4.13;;
76208;SDS011;64990;51.698;-0.292;2022-11-20T07:44:34;11.57;;;3.45;;
76208;SDS011;64990;51.698;-0.292;2022-11-20T07:47:00;20.02;;;4.07;;
76208;SDS011;64990;51.698;-0.292;2022-11-20T07:49:26;10.85;;;3.92;;
76208;SDS011;64990;51.698;-0.292;2022-11-20T07:51:53;9.93;;;4.80;;
76208;SDS011;64990;51.698;-0.292;2022-11-20T07:54:19;11.20;;;4.10;;
76208;SDS011;64990;51.698;-0.292;2022-11-20T07:56:45;12.00;;;4.72;;
76208;SDS011;64990;51.698;-0.292;2022-11-20T07:59:11;15.38;;;5.65;;
76208;SDS011;64990;51.698;-0.292;2022-11-20T08:01:38;9.95;;;5.32;;
76208;SDS011;64990;51.698;-0.292;2022-11-20T08:04:04;17.58;;;4.78;;
76208;SDS011;64990;51.698;-0.292;2022-11-20T08:06:30;12.38;;;5.72;;
76208;SDS011;64990;51.698;-0.292;2022-11-20T08:08:56;11.60;;;5.50;;
76208;SDS011;64990;51.698;-0.292;2022-11-20T08:11:22;17.80;;;5.30;;
76208;SDS011;64990;51.698;-0.292;2022-11-20T08:14:07;19.48;;;5.28;;
76208;SDS011;64990;51.698;-0.292;2022-11-20T08:19:08;13.50;;;4.70;;
76208;SDS011;64990;51.698;-0.292;2022-11-20T08:21:34;15.25;;;5.45;;
76208;SDS011;64990;51.698;-0.292;2022-11-20T08:24:00;30.23;;;4.75;;
76208;SDS011;64990;51.698;-0.292;2022-11-20T08:26:26;19.80;;;5.50;;
76208;SDS011;64990;51.698;-0.292;2022-11-20T08:28:53;13.43;;;5.07;;
76208;SDS011;64990;51.698;-0.292;2022-11-20T08:31:19;26.40;;;8.13;;
76208;SDS011;64990;51.698;-0.292;2022-11-20T08:33:45;19.17;;;6.22;;
76208;SDS011;64990;51.698;-0.292;2022-11-20T08:36:12;19.52;;;5.55;;
76208;SDS011;64990;51.698;-0.292;2022-11-20T08:38:38;22.73;;;5.60;;
76208;SDS011;64990;51.698;-0.292;2022-11-20T08:41:04;14.85;;;5.68;;
76208;SDS011;64990;51.698;-0.292;2022-11-20T08:43:48;17.90;;;7.47;;
76208;SDS011;64990;51.698;-0.292;2022-11-20T08:46:15;12.27;;;4.90;;
76208;SDS011;64990;51.698;-0.292;2022-11-20T08:48:41;14.65;;;6.53;;
76208;SDS011;64990;51.698;-0.292;2022-11-20T08:51:07;17.88;;;5.15;;
76208;SDS011;64990;51.698;-0.292;2022-11-20T08:53:33;17.52;;;5.45;;
76208;SDS011;64990;51.698;-0.292;2022-11-20T08:55:59;8.10;;;5.38;;
76208;SDS011;64990;51.698;-0.292;2022-11-20T08:58:25;19.40;;;5.55;;
76208;SDS011;64990;51.698;-0.292;2022-11-20T09:00:51;9.50;;;5.40;;
76208;SDS011;64990;51.698;-0.292;2022-11-20T09:03:18;20.90;;;8.52;;
76208;SDS011;64990;51.698;-0.292;2022-11-20T09:05:44;20.50;;;6.80;;
76208;SDS011;64990;51.698;-0.292;2022-11-20T09:08:10;16.10;;;6.90;;
76208;SDS011;64990;51.698;-0.292;2022-11-20T09:10:36;8.35;;;4.22;;
76208;SDS011;64990;51.698;-0.292;2022-11-20T09:13:04;15.02;;;4.38;;
76208;SDS011;64990;51.698;-0.292;2022-11-20T09:15:30;17.02;;;5.15;;
76208;SDS011;64990;51.698;-0.292;2022-11-20T09:17:57;14.85;;;5.22;;
76208;SDS011;64990;51.698;-0.292;2022-11-20T09:20:24;9.75;;;4.72;;
76208;SDS011;64990;51.698;-0.292;2022-11-20T09:22:50;23.00;;;5.03;;
76208;SDS011;64990;51.698;-0.292;2022-11-20T09:25:16;8.05;;;3.70;;
76208;SDS011;64990;51.698;-0.292;2022-11-20T09:27:42;14.02;;;4.47;;
76208;SDS011;64990;51.698;-0.292;2022-11-20T09:30:10;12.40;;;4.47;;
76208;SDS011;64990;51.698;-0.292;2022-11-20T09:32:38;17.80;;;4.38;;
76208;SDS011;64990;51.698;-0.292;2022-11-20T09:35:04;17.52;;;5.25;;
76208;SDS011;64990;51.698;-0.292;2022-11-20T09:37:30;12.45;;;5.22;;
76208;SDS011;64990;51.698;-0.292;2022-11-20T09:39:57;11.52;;;3.70;;
76208;SDS011;64990;51.698;-0.292;2022-11-20T09:45:15;17.23;;;4.50;;
76208;SDS011;64990;51.698;-0.292;2022-11-20T09:55:35;20.95;;;4.05;;
76208;SDS011;64990;51.698;-0.292;2022-11-20T09:58:01;27.80;;;5.25;;
76208;SDS011;64990;51.698;-0.292;2022-11-20T10:00:28;22.63;;;4.07;;
76208;SDS011;64990;51.698;-0.292;2022-11-20T10:02:55;28.33;;;4.72;;
76208;SDS011;64990;51.698;-0.292;2022-11-20T10:05:30;32.20;;;5.45;;
76208;SDS011;64990;51.698;-0.292;2022-11-20T10:08:13;29.05;;;4.00;;
76208;SDS011;64990;51.698;-0.292;2022-11-20T10:10:42;31.20;;;6.00;;
76208;SDS011;64990;51.698;-0.292;2022-11-20T10:15:55;25.08;;;2.95;;
76208;SDS011;64990;51.698;-0.292;2022-11-20T10:18:42;19.80;;;3.53;;
76208;SDS011;64990;51.698;-0.292;2022-11-20T10:23:45;15.77;;;2.90;;
76208;SDS011;64990;51.698;-0.292;2022-11-20T10:26:22;20.48;;;4.30;;
76208;SDS011;64990;51.698;-0.292;2022-11-20T10:31:34;25.98;;;2.97;;
76208;SDS011;64990;51.698;-0.292;2022-11-20T10:34:02;34.72;;;5.63;;
76208;SDS011;64990;51.698;-0.292;2022-11-20T10:36:30;25.98;;;3.58;;
76208;SDS011;64990;51.698;-0.292;2022-11-20T10:39:01;22.45;;;4.30;;
76208;SDS011;64990;51.698;-0.292;2022-11-20T10:41:34;17.33;;;4.35;;
76208;SDS011;64990;51.698;-0.292;2022-11-20T10:44:12;23.67;;;4.88;;
76208;SDS011;64990;51.698;-0.292;2022-11-20T10:46:40;27.27;;;3.50;;
76208;SDS011;64990;51.698;-0.292;2022-11-20T10:49:15;22.33;;;5.90;;
76208;SDS011;64990;51.698;-0.292;2022-11-20T10:57:11;24.88;;;6.00;;
76208;SDS011;64990;51.698;-0.292;2022-11-20T11:02:18;36.28;;;4.32;;
76208;SDS011;64990;51.698;-0.292;2022-11-20T11:04:46;19.92;;;4.15;;
76208;SDS011;64990;51.698;-0.292;2022-11-20T11:09:39;43.72;;;5.93;;
76208;SDS011;64990;51.698;-0.292;2022-11-20T11:12:08;33.00;;;6.93;;
76208;SDS011;64990;51.698;-0.292;2022-11-20T11:14:44;23.15;;;4.47;;
76208;SDS011;64990;51.698;-0.292;2022-11-20T11:17:21;26.52;;;5.05;;
76208;SDS011;64990;51.698;-0.292;2022-11-20T11:22:26;27.38;;;4.90;;
76208;SDS011;64990;51.698;-0.292;2022-11-20T11:24:53;25.88;;;4.65;;
76208;SDS011;64990;51.698;-0.292;2022-11-20T11:27:19;23.52;;;5.72;;
76208;SDS011;64990;51.698;-0.292;2022-11-20T11:29:46;39.88;;;6.70;;
76208;SDS011;64990;51.698;-0.292;2022-11-20T11:34:38;31.48;;;6.13;;
76208;SDS011;64990;51.698;-0.292;2022-11-20T11:37:04;30.70;;;3.15;;
76208;SDS011;64990;51.698;-0.292;2022-11-20T11:39:31;27.77;;;4.90;;
76208;SDS011;64990;51.698;-0.292;2022-11-20T11:41:59;32.25;;;6.28;;
76208;SDS011;64990;51.698;-0.292;2022-11-20T11:49:49;25.25;;;4.40;;
76208;SDS011;64990;51.698;-0.292;2022-11-20T11:52:25;22.98;;;5.50;;
76208;SDS011;64990;51.698;-0.292;2022-11-20T11:54:56;30.40;;;4.35;;
76208;SDS011;64990;51.698;-0.292;2022-11-20T12:00:03;29.98;;;4.95;;
76208;SDS011;64990;51.698;-0.292;2022-11-20T12:03:13;45.13;;;7.45;;
76208;SDS011;64990;51.698;-0.292;2022-11-20T12:05:23;29.40;;;4.97;;
76208;SDS011;64990;51.698;-0.292;2022-11-20T12:10:20;17.83;;;4.85;;
76208;SDS011;64990;51.698;-0.292;2022-11-20T12:12:54;26.95;;;5.55;;
76208;SDS011;64990;51.698;-0.292;2022-11-20T12:15:24;26.38;;;6.00;;
76208;SDS011;64990;51.698;-0.292;2022-11-20T12:17:51;11.98;;;3.92;;
76208;SDS011;64990;51.698;-0.292;2022-11-20T12:20:17;18.35;;;3.53;;
76208;SDS011;64990;51.698;-0.292;2022-11-20T12:22:49;17.50;;;3.65;;
76208;SDS011;64990;51.698;-0.292;2022-11-20T12:25:30;26.80;;;4.03;;
76208;SDS011;64990;51.698;-0.292;2022-11-20T12:30:25;43.67;;;5.50;;
76208;SDS011;64990;51.698;-0.292;2022-11-20T12:33:34;49.67;;;5.22;;
76208;SDS011;64990;51.698;-0.292;2022-11-20T12:43:27;21.95;;;4.18;;
76208;SDS011;64990;51.698;-0.292;2022-11-20T12:46:24;31.52;;;5.40;;
76208;SDS011;64990;51.698;-0.292;2022-11-20T12:49:04;17.95;;;3.05;;
76208;SDS011;64990;51.698;-0.292;2022-11-20T12:51:45;20.38;;;3.92;;
76208;SDS011;64990;51.698;-0.292;2022-11-20T12:54:23;23.48;;;3.85;;
76208;SDS011;64990;51.698;-0.292;2022-11-20T12:57:01;19.25;;;4.22;;
76208;SDS011;64990;51.698;-0.292;2022-11-20T13:07:29;20.73;;;3.72;;
76208;SDS011;64990;51.698;-0.292;2022-11-20T13:09:56;27.05;;;2.65;;
76208;SDS011;64990;51.698;-0.292;2022-11-20T14:48:19;14.05;;;4.07;;
76208;SDS011;64990;51.698;-0.292;2022-11-20T14:50:46;30.40;;;5.32;;
76208;SDS011;64990;51.698;-0.292;2022-11-20T14:53:12;11.10;;;2.78;;
76208;SDS011;64990;51.698;-0.292;2022-11-20T14:55:53;19.30;;;3.58;;
76208;SDS011;64990;51.698;-0.292;2022-11-20T14:58:21;13.95;;;2.72;;
76208;SDS011;64990;51.698;-0.292;2022-11-20T15:01:00;19.63;;;3.80;;
76208;SDS011;64990;51.698;-0.292;2022-11-20T15:03:31;19.38;;;3.90;;
76208;SDS011;64990;51.698;-0.292;2022-11-20T15:05:57;25.38;;;4.32;;
76208;SDS011;64990;51.698;-0.292;2022-11-20T15:08:23;9.43;;;3.30;;
76208;SDS011;64990;51.698;-0.292;2022-11-20T15:10:50;22.27;;;6.32;;
76208;SDS011;64990;51.698;-0.292;2022-11-20T15:13:23;11.63;;;3.58;;
76208;SDS011;64990;51.698;-0.292;2022-11-20T15:15:51;17.45;;;3.22;;
76208;SDS011;64990;51.698;-0.292;2022-11-20T15:18:20;17.80;;;5.38;;
76208;SDS011;64990;51.698;-0.292;2022-11-20T15:20:47;11.48;;;2.80;;
76208;SDS011;64990;51.698;-0.292;2022-11-20T15:23:17;22.70;;;4.38;;
76208;SDS011;64990;51.698;-0.292;2022-11-20T15:25:43;12.00;;;2.35;;
76208;SDS011;64990;51.698;-0.292;2022-11-20T15:28:17;13.43;;;2.08;;
76208;SDS011;64990;51.698;-0.292;2022-11-20T15:30:44;20.92;;;4.40;;
76208;SDS011;64990;51.698;-0.292;2022-11-20T15:33:11;13.82;;;2.75;;
76208;SDS011;64990;51.698;-0.292;2022-11-20T15:35:37;18.23;;;4.03;;
76208;SDS011;64990;51.698;-0.292;2022-11-20T15:38:03;16.42;;;3.53;;
76208;SDS011;64990;51.698;-0.292;2022-11-20T15:40:29;22.17;;;3.17;;
76208;SDS011;64990;51.698;-0.292;2022-11-20T15:42:55;12.20;;;3.83;;
76208;SDS011;64990;51.698;-0.292;2022-11-20T15:45:31;28.75;;;4.78;;
76208;SDS011;64990;51.698;-0.292;2022-11-20T15:47:59;18.63;;;3.55;;
76208;SDS011;64990;51.698;-0.292;2022-11-20T15:50:27;12.05;;;3.92;;
76208;SDS011;64990;51.698;-0.292;2022-11-20T15:52:55;12.15;;;1.95;;
76208;SDS011;64990;51.698;-0.292;2022-11-20T15:55:21;20.90;;;4.03;;
76208;SDS011;64990;51.698;-0.292;2022-11-20T15:57:47;12.90;;;3.08;;
76208;SDS011;64990;51.698;-0.292;2022-11-20T16:00:13;13.88;;;2.42;;
76208;SDS011;64990;51.698;-0.292;2022-11-20T16:02:39;23.25;;;3.47;;
76208;SDS011;64990;51.698;-0.292;2022-11-20T16:05:08;19.25;;;2.42;;
76208;SDS011;64990;51.698;-0.292;2022-11-20T16:07:35;8.45;;;2.63;;
76208;SDS011;64990;51.698;-0.292;2022-11-20T16:10:01;24.92;;;5.45;;
76208;SDS011;64990;51.698;-0.292;2022-11-20T16:12:28;16.45;;;4.35;;
76208;SDS011;64990;51.698;-0.292;2022-11-20T16:15:12;21.27;;;4.50;;
76208;SDS011;64990;51.698;-0.292;2022-11-20T16:17:57;16.13;;;5.03;;
76208;SDS011;64990;51.698;-0.292;2022-11-20T16:20:23;12.90;;;3.45;;
76208;SDS011;64990;51.698;-0.292;2022-11-20T16:22:49;24.30;;;3.90;;
76208;SDS011;64990;51.698;-0.292;2022-11-20T16:25:15;20.20;;;3.20;;
76208;SDS011;64990;51.698;-0.292;2022-11-20T16:27:41;17.90;;;2.30;;
76208;SDS011;64990;51.698;-0.292;2022-11-20T16:30:07;15.02;;;2.58;;
76208;SDS011;64990;51.698;-0.292;2022-11-20T16:32:33;15.68;;;2.83;;
76208;SDS011;64990;51.698;-0.292;2022-11-20T16:34:59;6.35;;;2.58;;
76208;SDS011;64990;51.698;-0.292;2022-11-20T16:37:25;11.68;;;3.75;;
76208;SDS011;64990;51.698;-0.292;2022-11-20T16:39:52;12.57;;;2.25;;
76208;SDS011;64990;51.698;-0.292;2022-11-20T16:42:17;14.32;;;3.40;;
76208;SDS011;64990;51.698;-0.292;2022-11-20T16:44:45;6.80;;;2.00;;
76208;SDS011;64990;51.698;-0.292;2022-11-20T16:47:12;6.90;;;2.55;;
76208;SDS011;64990;51.698;-0.292;2022-11-20T16:49:37;10.40;;;1.75;;
76208;SDS011;64990;51.698;-0.292;2022-11-20T16:52:03;6.90;;;1.63;;
76208;SDS011;64990;51.698;-0.292;2022-11-20T16:54:29;12.60;;;2.25;;
76208;SDS011;64990;51.698;-0.292;2022-11-20T16:56:55;14.35;;;2.90;;
76208;SDS011;64990;51.698;-0.292;2022-11-20T16:59:21;8.13;;;3.05;;
76208;SDS011;64990;51.698;-0.292;2022-11-20T17:01:48;14.60;;;2.95;;
76208;SDS011;64990;51.698;-0.292;2022-11-20T17:04:14;6.30;;;1.95;;
76208;SDS011;64990;51.698;-0.292;2022-11-20T17:06:41;15.95;;;2.50;;
76208;SDS011;64990;51.698;-0.292;2022-11-20T17:09:12;7.10;;;2.78;;
76208;SDS011;64990;51.698;-0.292;2022-11-20T17:11:38;18.77;;;3.67;;
76208;SDS011;64990;51.698;-0.292;2022-11-20T17:14:04;11.43;;;2.13;;